Home   Weather   Germany   Munich   Past weeks
Flag for Germany

Past Weather in Munich, Bavaria, Germany — September 2023

Currently: 39 °F. Overcast. (Weather station: Oberpfaffenhofen, Germany). See more current weather

September 2023 Weather in Munich — Graph

°F

High & Low Weather Summary for September 2023

 TemperatureHumidityPressure
High84 °F (Sep 11, 4:20 pm)100% (Sep 2, 1:20 am)30.39 "Hg (Sep 2, 1:20 am)
Low41 °F (Sep 24, 6:50 am)33% (Sep 12, 4:50 pm)29.56 "Hg (Sep 21, 7:50 pm)
Average62 °F79%30.11 "Hg
* Reported Sep 1 12:20 am — Sep 30 11:50 pm, Munich. Weather by CustomWeather, © 2024

Note: Actual official high and low records may vary slightly from our data, if they occured in-between our weather recording intervals... More about our weather records

Munich Weather History for September 1, 2023

Scroll right to see more
 ConditionsComfort  
Time TempWeatherWind HumidityBarometerVisibility
12:20 am
Fri, Sep 1
57 °FOvercast.6 mph82%30.07 "HgN/A
12:50 am57 °FOvercast.7 mph82%30.07 "HgN/A
1:20 am55 °FOvercast.6 mph94%30.07 "HgN/A
2:50 am55 °FMostly cloudy.2 mph94%30.07 "Hg3 mi
3:20 am55 °FMostly cloudy.5 mph94%30.04 "HgN/A
4:20 am55 °FOvercast.6 mph94%30.04 "HgN/A
4:50 am55 °FOvercast.7 mph94%30.04 "HgN/A
5:20 am55 °FPassing clouds.6 mph88%30.04 "HgN/A
5:50 am57 °FPassing clouds.8 mph82%30.04 "HgN/A
6:20 am59 °FOvercast.10 mph82%30.04 "HgN/A
6:50 am57 °FPartly sunny.7 mph88%30.04 "HgN/A
7:50 am61 °FPartly sunny.8 mph77%30.04 "HgN/A
8:20 am61 °FScattered clouds.10 mph83%30.04 "HgN/A
8:50 am63 °FSunny.10 mph73%30.07 "Hg10 mi
9:20 am64 °FSunny.10 mph73%30.07 "Hg10 mi
10:20 am66 °FPartly sunny.13 mph68%30.07 "HgN/A
10:50 am68 °FPassing clouds.13 mph64%30.07 "HgN/A
11:20 am68 °FSunny.13 mph60%30.07 "Hg10 mi
11:50 am70 °FPassing clouds.13 mph60%30.07 "HgN/A
12:20 pm70 °FPassing clouds.13 mph60%30.07 "HgN/A
12:50 pm72 °FPassing clouds.13 mph53%30.07 "HgN/A
1:20 pm72 °FPassing clouds.15 mph53%30.07 "HgN/A
1:50 pm73 °FPassing clouds.15 mph53%30.07 "HgN/A
2:20 pm72 °FPassing clouds.16 mph53%30.07 "HgN/A
2:50 pm73 °FPassing clouds.14 mph53%30.07 "HgN/A
3:20 pm72 °FSunny.12 mph57%30.07 "Hg10 mi
4:20 pm72 °FSunny.9 mph57%30.04 "Hg10 mi
4:50 pm72 °FPassing clouds.6 mph57%30.04 "HgN/A
5:20 pm73 °FPassing clouds.8 mph53%30.04 "HgN/A
5:50 pm72 °FPassing clouds.10 mph57%30.04 "HgN/A
6:20 pm72 °FPassing clouds.8 mph57%30.04 "HgN/A
6:50 pm72 °FSunny.7 mph57%30.07 "Hg10 mi
7:20 pm70 °FSunny.5 mph60%30.07 "Hg10 mi
7:50 pm64 °FPassing clouds.2 mph78%30.07 "HgN/A
8:20 pm61 °FPassing clouds.2 mph88%30.07 "HgN/A
8:50 pm59 °FPassing clouds.5 mph94%30.07 "HgN/A
9:20 pm59 °FPassing clouds.2 mph94%30.09 "HgN/A
9:50 pm59 °FPassing clouds.7 mph88%30.09 "HgN/A
10:20 pm59 °FPassing clouds.3 mph88%30.09 "HgN/A
10:50 pm57 °FClear.3 mph88%30.09 "HgN/A
Weather by CustomWeather, © 2024

See weather overview